Bluetown, Texas
Current Conditions -  °F | °C
As of 11:35 PM on Wednesday 17 Dec 2014 (Local Time) from KT65 Reporting Station
Clear Clear  
Wind Chill: 70°   Ceiling: Unl
Heat Index: 70°   Visibility: 10mi
Dew Point: 66°   Wind: 6mph
Humidity: 87%   Direction: 170°S
Pressure: 30.02"   Gusts: NA
Location:  26.0737°N, 97.8225°W
Report Text: KT65 180535Z AUTO 17005KT 10SM CLR 21/19 A3002 RMK AO2 T02100187
Loading
Personal Weather Stations






























Interactive Weather Map New forecast layout! Learn more

10-Day Weather Forecast

Advertisements
Track Severe Weather on mobile